createdAt,value
2023-01-20T00:01:50.824Z,22.50
2023-01-20T00:04:23.075Z,22.90
2023-01-20T00:07:09.160Z,23.60
2023-01-20T00:09:41.255Z,24.40
2023-01-20T00:14:44.161Z,20.80
2023-01-20T00:17:16.649Z,21.50
2023-01-20T00:19:52.115Z,22.90
2023-01-20T00:22:24.734Z,21.50
2023-01-20T00:24:57.092Z,22.70
2023-01-20T00:27:32.651Z,22.30
2023-01-20T00:30:10.195Z,21.00
2023-01-20T00:32:44.870Z,21.50
2023-01-20T00:35:17.497Z,20.40
2023-01-20T00:37:53.137Z,22.00
2023-01-20T00:43:16.634Z,20.10
2023-01-20T00:45:48.944Z,20.30
2023-01-20T00:48:25.712Z,21.00
2023-01-20T00:50:57.800Z,22.00
2023-01-20T00:53:30.279Z,20.80
2023-01-20T00:56:03.001Z,19.70
2023-01-20T00:58:59.369Z,21.50
2023-01-20T01:01:34.185Z,18.70
2023-01-20T01:04:09.464Z,20.20
2023-01-20T01:06:42.438Z,22.10
2023-01-20T01:09:15.682Z,20.30
2023-01-20T01:14:18.862Z,20.30
2023-01-20T01:16:51.144Z,20.80
2023-01-20T01:19:23.369Z,20.40
2023-01-20T01:24:26.259Z,20.70
2023-01-20T01:26:58.766Z,17.70
2023-01-20T01:29:45.345Z,22.20
2023-01-20T01:32:21.073Z,21.00
2023-01-20T01:34:53.542Z,20.40
2023-01-20T01:37:27.314Z,20.90
2023-01-20T01:39:59.801Z,21.50
2023-01-20T01:42:32.180Z,21.10
2023-01-20T01:48:03.114Z,20.40
2023-01-20T01:50:40.934Z,21.20
2023-01-20T01:53:14.377Z,21.90
2023-01-20T01:55:52.836Z,21.70
2023-01-20T01:58:29.323Z,21.80
2023-01-20T02:01:04.806Z,22.10
2023-01-20T02:03:43.996Z,19.30
2023-01-20T02:06:27.078Z,22.10
2023-01-20T02:09:01.155Z,22.00
2023-01-20T02:11:43.875Z,21.30
2023-01-20T02:14:17.769Z,21.50
2023-01-20T02:17:02.701Z,20.30
2023-01-20T02:20:16.460Z,20.10
2023-01-20T02:22:52.538Z,21.30
2023-01-20T02:25:47.941Z,19.80
2023-01-20T02:28:47.023Z,20.10
2023-01-20T02:32:02.314Z,21.50
2023-01-20T02:34:39.630Z,20.40
2023-01-20T02:37:19.621Z,20.70
2023-01-20T02:40:19.548Z,19.40
2023-01-20T02:42:58.823Z,21.20
2023-01-20T02:45:36.745Z,21.30
2023-01-20T02:48:16.626Z,21.70
2023-01-20T02:50:59.586Z,22.50
2023-01-20T02:53:38.522Z,21.70
2023-01-20T02:56:12.566Z,20.10
2023-01-20T02:58:50.488Z,20.80
2023-01-20T03:01:28.474Z,23.30
2023-01-20T03:04:06.359Z,21.90
2023-01-20T03:06:42.081Z,22.20
2023-01-20T03:09:22.231Z,19.30
2023-01-20T03:11:58.713Z,18.40
2023-01-20T03:14:32.061Z,17.80
2023-01-20T03:17:07.268Z,17.50
2023-01-20T03:19:39.753Z,19.20
2023-01-20T03:22:12.102Z,19.10
2023-01-20T03:24:48.472Z,18.00
2023-01-20T03:27:20.869Z,18.00
2023-01-20T03:29:53.524Z,18.80
2023-01-20T03:32:29.499Z,18.10
2023-01-20T03:35:02.353Z,17.60
2023-01-20T03:37:39.421Z,17.70
2023-01-20T03:45:07.139Z,18.20
2023-01-20T03:47:59.720Z,16.90
2023-01-20T03:50:58.559Z,17.00
2023-01-20T03:53:37.534Z,17.40
2023-01-20T03:56:18.110Z,17.90
2023-01-20T03:58:54.749Z,20.00
2023-01-20T04:01:39.476Z,18.30
2023-01-20T04:04:15.865Z,17.70
2023-01-20T04:07:10.825Z,16.00
2023-01-20T04:09:47.512Z,16.20
2023-01-20T04:12:40.097Z,18.10
2023-01-20T04:15:14.085Z,18.70
2023-01-20T04:17:47.131Z,17.90
2023-01-20T04:20:38.678Z,17.40
2023-01-20T04:23:15.527Z,17.20
2023-01-20T04:26:08.421Z,17.00
2023-01-20T04:28:43.461Z,17.90
2023-01-20T04:31:29.713Z,19.60
2023-01-20T04:34:06.190Z,20.70
2023-01-20T04:36:38.281Z,19.90
2023-01-20T04:39:19.815Z,18.80
2023-01-20T04:42:13.472Z,18.90
2023-01-20T04:45:07.150Z,21.00
2023-01-20T04:47:59.875Z,20.20
2023-01-20T04:50:52.603Z,19.30
2023-01-20T04:53:36.511Z,19.20
2023-01-20T04:56:15.371Z,20.70
2023-01-20T04:59:01.603Z,21.80
2023-01-20T05:01:46.704Z,20.60
2023-01-20T05:04:19.157Z,19.20
2023-01-20T05:07:00.175Z,17.40
2023-01-20T05:09:45.479Z,19.40
2023-01-20T05:12:30.674Z,17.90
2023-01-20T05:15:02.983Z,18.50
2023-01-20T05:17:48.178Z,18.50
2023-01-20T05:23:31.721Z,15.80
2023-01-20T05:26:12.852Z,16.60
2023-01-20T05:28:47.281Z,16.90
2023-01-20T05:31:19.672Z,18.10
2023-01-20T05:34:06.127Z,19.00
2023-01-20T05:36:38.303Z,18.20
2023-01-20T05:41:55.163Z,14.40
2023-01-20T05:44:30.659Z,17.00
2023-01-20T05:47:02.727Z,18.20
2023-01-20T05:49:39.661Z,16.50
2023-01-20T05:52:21.491Z,18.40
2023-01-20T05:55:01.036Z,17.00
2023-01-20T05:57:42.426Z,18.50
2023-01-20T06:00:19.268Z,18.30
2023-01-20T06:02:51.631Z,17.80
2023-01-20T06:05:24.375Z,16.60
2023-01-20T06:07:58.024Z,18.20
2023-01-20T06:10:30.100Z,20.70
2023-01-20T06:13:02.411Z,18.10
2023-01-20T06:15:34.806Z,19.50
2023-01-20T06:18:12.857Z,19.20
2023-01-20T06:20:45.266Z,56.20
2023-01-20T06:23:31.554Z,55.30
2023-01-20T06:26:15.008Z,38.90
2023-01-20T06:29:02.575Z,26.50
2023-01-20T06:31:34.796Z,21.60
2023-01-20T06:34:21.717Z,20.30
2023-01-20T06:36:57.134Z,19.10
2023-01-20T06:39:40.645Z,20.00
2023-01-20T06:42:13.722Z,20.30
2023-01-20T06:45:07.191Z,21.20
2023-01-20T06:47:52.418Z,21.00
2023-01-20T06:50:24.678Z,18.80
2023-01-20T06:52:59.608Z,23.90
2023-01-20T06:55:32.117Z,27.40
2023-01-20T07:01:11.223Z,25.00
2023-01-20T07:03:44.597Z,21.40
2023-01-20T07:06:32.804Z,34.40
2023-01-20T07:09:18.694Z,37.40
2023-01-20T07:11:50.871Z,33.30
2023-01-20T07:14:23.597Z,33.40
2023-01-20T07:17:16.033Z,28.80
2023-01-20T07:20:01.968Z,28.30
2023-01-20T07:22:54.312Z,29.00
2023-01-20T07:25:26.475Z,27.60
2023-01-20T07:28:01.847Z,29.10
2023-01-20T07:33:07.646Z,26.10
2023-01-20T07:38:41.029Z,25.30
2023-01-20T07:41:24.830Z,25.30
2023-01-20T07:44:17.709Z,25.60
2023-01-20T07:47:10.468Z,25.30
2023-01-20T07:49:56.821Z,26.20
2023-01-20T07:52:39.035Z,24.30
2023-01-20T07:55:14.443Z,25.00
2023-01-20T07:57:50.821Z,27.90
2023-01-20T08:00:43.403Z,29.20
2023-01-20T08:03:15.804Z,28.80
2023-01-20T08:06:08.731Z,26.10
2023-01-20T08:08:44.267Z,30.20
2023-01-20T08:11:33.486Z,27.50
2023-01-20T08:14:26.050Z,28.80
2023-01-20T08:19:49.070Z,24.70
2023-01-20T08:22:21.435Z,27.00
2023-01-20T08:24:56.706Z,27.40
2023-01-20T08:27:32.410Z,27.50
2023-01-20T08:30:04.975Z,29.70
2023-01-20T08:32:48.281Z,28.70
2023-01-20T08:38:11.563Z,28.90
2023-01-20T08:40:52.771Z,28.20
2023-01-20T08:43:45.567Z,25.50
2023-01-20T08:46:41.507Z,28.40
2023-01-20T08:49:16.781Z,28.30
2023-01-20T08:52:04.227Z,26.60
2023-01-20T08:54:41.881Z,26.80
2023-01-20T09:00:26.619Z,28.10
2023-01-20T09:02:58.759Z,30.10
2023-01-20T09:05:31.205Z,29.60
2023-01-20T09:08:27.057Z,28.70
2023-01-20T09:11:05.060Z,29.10
2023-01-20T09:13:38.215Z,28.60
2023-01-20T09:16:13.066Z,36.30
2023-01-20T09:19:05.548Z,32.20
2023-01-20T09:24:28.812Z,29.50
2023-01-20T09:27:12.061Z,31.50
2023-01-20T09:29:44.358Z,31.40
2023-01-20T09:32:17.004Z,31.30
2023-01-20T09:34:49.260Z,30.50
2023-01-20T09:37:39.424Z,30.20
2023-01-20T09:40:35.010Z,30.00
2023-01-20T09:43:46.211Z,34.10
2023-01-20T09:46:25.474Z,32.70
2023-01-20T09:49:21.643Z,32.40
2023-01-20T09:52:38.961Z,33.60
2023-01-20T09:55:20.810Z,32.80
2023-01-20T09:57:59.845Z,30.80
2023-01-20T10:00:35.740Z,30.10
2023-01-20T10:03:25.610Z,32.20
2023-01-20T10:06:12.711Z,30.10
2023-01-20T10:09:04.449Z,31.20
2023-01-20T10:11:41.542Z,37.30
2023-01-20T10:14:20.931Z,43.10
2023-01-20T10:17:02.407Z,48.20
2023-01-20T10:19:42.403Z,49.10
2023-01-20T10:22:28.949Z,52.00
2023-01-20T10:25:08.059Z,51.40
2023-01-20T10:30:20.368Z,48.80
2023-01-20T10:33:06.743Z,54.00
2023-01-20T10:35:41.587Z,54.10
2023-01-20T10:38:25.868Z,54.40
2023-01-20T10:41:28.250Z,51.40
2023-01-20T10:44:01.576Z,48.90
2023-01-20T10:46:50.355Z,47.40
2023-01-20T10:49:46.091Z,45.30
2023-01-20T10:52:30.387Z,43.50
2023-01-20T10:55:16.516Z,52.80
2023-01-20T10:57:57.284Z,54.70
2023-01-20T11:00:35.848Z,52.40
2023-01-20T11:03:12.292Z,52.60
2023-01-20T11:05:52.143Z,53.80
2023-01-20T11:08:30.438Z,51.30
2023-01-20T11:11:11.092Z,53.50
2023-01-20T11:13:43.823Z,37.90
2023-01-20T11:16:24.736Z,36.80
2023-01-20T11:19:02.690Z,48.10
2023-01-20T11:21:37.278Z,35.00
2023-01-20T11:24:42.848Z,52.70
2023-01-20T11:27:18.768Z,40.90
2023-01-20T11:29:56.983Z,26.20
2023-01-20T11:32:35.994Z,92.40
2023-01-20T11:35:22.771Z,73.20
2023-01-20T11:37:57.451Z,54.70
2023-01-20T11:40:30.999Z,73.60
2023-01-20T11:43:03.509Z,49.90
2023-01-20T11:45:37.210Z,38.30
2023-01-20T11:48:21.615Z,30.60
2023-01-20T11:50:57.604Z,29.00
2023-01-20T11:53:32.091Z,35.60
2023-01-20T11:56:06.932Z,21.40
2023-01-20T11:58:54.891Z,23.80
2023-01-20T12:01:29.667Z,34.60
2023-01-20T12:04:28.016Z,35.40
2023-01-20T12:07:08.584Z,17.30
2023-01-20T12:09:44.998Z,18.70
2023-01-20T12:12:34.206Z,15.10
2023-01-20T12:15:13.210Z,22.10
2023-01-20T12:17:53.683Z,15.10
2023-01-20T12:20:45.614Z,12.60
2023-01-20T12:23:26.700Z,12.90
2023-01-20T12:26:21.143Z,19.30
2023-01-20T12:28:59.612Z,16.80
2023-01-20T12:31:37.368Z,15.50
2023-01-20T12:34:16.401Z,17.10
2023-01-20T12:37:01.495Z,15.50
2023-01-20T12:39:52.454Z,23.60
2023-01-20T12:42:52.938Z,22.60
2023-01-20T12:45:38.553Z,24.00
2023-01-20T12:48:27.068Z,26.80
2023-01-20T12:51:21.664Z,26.40
2023-01-20T12:54:08.324Z,21.30
2023-01-20T12:56:53.449Z,21.20
2023-01-20T12:59:38.661Z,17.60
2023-01-20T13:02:37.706Z,18.70
2023-01-20T13:05:35.135Z,16.90
2023-01-20T13:08:16.676Z,25.20
2023-01-20T13:11:03.582Z,66.60
2023-01-20T13:13:56.834Z,90.60
2023-01-20T13:16:38.096Z,99.10
2023-01-20T13:19:16.866Z,129.70
2023-01-20T13:22:07.011Z,48.70
2023-01-20T13:24:40.762Z,47.20
2023-01-20T13:27:13.986Z,27.90
2023-01-20T13:29:56.829Z,69.10
2023-01-20T13:32:35.825Z,59.30
2023-01-20T13:35:43.237Z,93.50
2023-01-20T13:38:30.883Z,105.90
2023-01-20T13:41:06.065Z,82.70
2023-01-20T13:43:53.087Z,99.40
2023-01-20T13:46:47.460Z,100.40
2023-01-20T13:49:45.804Z,84.60
2023-01-20T13:52:57.591Z,25.50
2023-01-20T13:55:52.574Z,20.70
2023-01-20T13:58:26.401Z,16.00
2023-01-20T14:01:00.713Z,13.40
2023-01-20T14:03:35.286Z,21.40
2023-01-20T14:06:19.495Z,17.10
2023-01-20T14:08:53.552Z,18.70
2023-01-20T14:11:27.576Z,15.80
2023-01-20T14:14:05.772Z,20.20
2023-01-20T14:16:44.834Z,26.60
2023-01-20T14:19:24.882Z,23.70
2023-01-20T14:21:58.964Z,22.50
2023-01-20T14:24:33.772Z,27.90
2023-01-20T14:27:16.453Z,29.60
2023-01-20T14:29:53.447Z,36.20
2023-01-20T14:32:28.458Z,21.50
2023-01-20T14:35:01.613Z,27.20
2023-01-20T14:37:36.683Z,29.30
2023-01-20T14:40:23.687Z,33.00
2023-01-20T14:43:00.434Z,19.70
2023-01-20T14:45:34.537Z,36.70
2023-01-20T14:48:07.866Z,30.90
2023-01-20T14:50:40.978Z,80.00
2023-01-20T14:53:16.887Z,47.70
2023-01-20T14:56:02.231Z,101.10
2023-01-20T14:58:35.176Z,67.50
2023-01-20T15:01:08.488Z,229.50
2023-01-20T15:03:40.660Z,69.10
2023-01-20T15:06:24.071Z,78.00
2023-01-20T15:09:06.460Z,25.00
2023-01-20T15:11:40.059Z,47.10
2023-01-20T15:14:14.627Z,26.00
2023-01-20T15:16:51.151Z,32.90
2023-01-20T15:19:47.309Z,34.30
2023-01-20T15:22:27.964Z,24.20
2023-01-20T15:25:13.058Z,34.70
2023-01-20T15:27:45.488Z,18.50
2023-01-20T15:30:21.408Z,28.50
2023-01-20T15:32:55.740Z,30.70
2023-01-20T15:35:31.783Z,31.70
2023-01-20T15:38:13.011Z,22.40
2023-01-20T15:40:45.750Z,28.50
2023-01-20T15:43:19.967Z,28.90
2023-01-20T15:45:52.237Z,29.10
2023-01-20T15:48:27.303Z,21.40
2023-01-20T15:50:59.686Z,29.20
2023-01-20T15:53:32.300Z,25.00
2023-01-20T15:56:06.377Z,27.30
2023-01-20T15:58:40.332Z,25.60
2023-01-20T16:01:21.074Z,15.40
2023-01-20T16:03:55.036Z,25.20
2023-01-20T16:06:31.807Z,26.60
2023-01-20T16:09:14.980Z,27.00
2023-01-20T16:11:47.661Z,25.30
2023-01-20T16:14:19.935Z,24.20
2023-01-20T16:16:52.503Z,23.20
2023-01-20T16:19:24.717Z,29.50
2023-01-20T16:21:59.882Z,33.90
2023-01-20T16:24:32.221Z,89.80
2023-01-20T16:29:36.096Z,187.10
2023-01-20T16:32:08.795Z,38.40
2023-01-20T16:34:41.232Z,44.80
2023-01-20T16:42:17.618Z,63.10
2023-01-20T16:44:50.055Z,58.20
2023-01-20T16:47:22.541Z,75.70
2023-01-20T16:49:54.731Z,45.10
2023-01-20T16:52:27.196Z,48.30
2023-01-20T16:57:30.037Z,51.20
2023-01-20T17:00:02.352Z,50.90
2023-01-20T17:02:35.281Z,45.30
2023-01-20T17:05:09.195Z,61.90
2023-01-20T17:07:41.544Z,43.90
2023-01-20T17:12:48.652Z,27.20
2023-01-20T17:15:21.925Z,37.60
2023-01-20T17:17:56.721Z,33.70
2023-01-20T17:20:32.566Z,42.30
2023-01-20T17:23:07.920Z,42.80
2023-01-20T17:25:41.117Z,55.60
2023-01-20T17:28:13.443Z,46.60
2023-01-20T17:30:45.690Z,41.60
2023-01-20T17:33:17.942Z,33.70
2023-01-20T17:35:59.570Z,32.60
2023-01-20T17:38:33.396Z,40.50
2023-01-20T17:41:06.659Z,37.20
2023-01-20T17:43:40.909Z,30.10
2023-01-20T17:46:18.286Z,32.80
2023-01-20T17:48:51.091Z,33.30
2023-01-20T17:51:25.208Z,31.80
2023-01-20T17:54:03.787Z,29.00
2023-01-20T17:56:36.641Z,30.90
2023-01-20T18:01:40.386Z,23.70
2023-01-20T18:04:12.563Z,30.20
2023-01-20T18:06:45.004Z,37.50
2023-01-20T18:09:17.735Z,26.70
2023-01-20T18:11:49.965Z,29.70
2023-01-20T18:16:56.210Z,27.80
2023-01-20T18:19:28.950Z,26.90
2023-01-20T18:22:07.008Z,27.50
2023-01-20T18:24:39.496Z,30.30
2023-01-20T18:27:14.927Z,20.20
2023-01-20T18:29:47.175Z,30.50
2023-01-20T18:34:50.878Z,27.30
2023-01-20T18:37:23.096Z,30.70
2023-01-20T18:39:55.268Z,25.30
2023-01-20T18:42:28.303Z,27.70
2023-01-20T18:45:01.709Z,31.80
2023-01-20T18:47:34.374Z,27.30
2023-01-20T18:50:07.873Z,29.60
2023-01-20T18:52:40.510Z,25.50
2023-01-20T18:55:15.662Z,26.00
2023-01-20T18:57:48.107Z,37.40
2023-01-20T19:00:21.489Z,30.60
2023-01-20T19:02:54.316Z,33.90
2023-01-20T19:05:36.252Z,31.10
2023-01-20T19:08:08.853Z,79.10
2023-01-20T19:10:41.144Z,61.30
2023-01-20T19:13:14.211Z,65.00
2023-01-20T19:15:46.573Z,60.70
2023-01-20T19:20:49.554Z,49.20
2023-01-20T19:23:22.016Z,29.60
2023-01-20T19:26:03.598Z,34.00
2023-01-20T19:28:36.513Z,33.00
2023-01-20T19:31:13.842Z,40.50
2023-01-20T19:34:06.943Z,34.70
2023-01-20T19:36:39.701Z,26.30
2023-01-20T19:39:13.069Z,38.40
2023-01-20T19:41:45.907Z,40.70
2023-01-20T19:44:23.511Z,33.20
2023-01-20T19:46:58.869Z,67.10
2023-01-20T19:49:31.995Z,37.90
2023-01-20T19:52:04.661Z,44.30
2023-01-20T19:54:51.719Z,39.40
2023-01-20T19:57:27.467Z,28.00
2023-01-20T20:00:06.634Z,30.10
2023-01-20T20:02:45.553Z,31.50
2023-01-20T20:05:26.993Z,30.80
2023-01-20T20:08:14.110Z,40.80
2023-01-20T20:10:51.380Z,36.30
2023-01-20T20:13:37.878Z,36.00
2023-01-20T20:16:11.113Z,33.20
2023-01-20T20:18:43.241Z,36.10
2023-01-20T20:21:15.630Z,30.60
2023-01-20T20:26:23.757Z,31.10
2023-01-20T20:28:56.449Z,34.50
2023-01-20T20:31:29.641Z,37.00
2023-01-20T20:34:03.501Z,36.10
2023-01-20T20:36:36.121Z,27.70
2023-01-20T20:39:08.934Z,32.20
2023-01-20T20:41:41.085Z,32.00
2023-01-20T20:46:44.812Z,31.60
2023-01-20T20:49:17.691Z,29.80
2023-01-20T20:51:50.251Z,31.50
2023-01-20T20:54:22.425Z,28.20
2023-01-20T20:59:25.650Z,36.10
2023-01-20T21:01:58.094Z,32.20
2023-01-20T21:04:31.346Z,23.40
2023-01-20T21:07:03.372Z,29.50
2023-01-20T21:12:07.536Z,26.90
2023-01-20T21:14:40.196Z,34.70
2023-01-20T21:17:12.404Z,25.80
2023-01-20T21:19:44.605Z,28.30
2023-01-20T21:24:47.529Z,23.20
2023-01-20T21:27:22.826Z,25.70
2023-01-20T21:32:25.768Z,22.40
2023-01-20T21:37:28.592Z,16.00
2023-01-20T21:40:00.907Z,20.20
2023-01-20T21:42:33.431Z,19.30
2023-01-20T21:45:06.167Z,23.90
2023-01-20T21:47:38.358Z,23.40
2023-01-20T21:50:30.047Z,24.90
2023-01-20T21:53:02.356Z,16.70
2023-01-20T21:55:34.369Z,23.80
2023-01-20T21:58:06.673Z,13.00
2023-01-20T22:00:38.940Z,18.40
2023-01-20T22:03:11.509Z,23.00
2023-01-20T22:05:46.239Z,23.30
2023-01-20T22:08:18.339Z,22.00
2023-01-20T22:13:28.037Z,19.90
2023-01-20T22:18:34.865Z,23.90
2023-01-20T22:21:08.570Z,19.00
2023-01-20T22:23:40.939Z,16.80
2023-01-20T22:26:13.252Z,18.50
2023-01-20T22:28:45.710Z,17.10
2023-01-20T22:31:23.426Z,19.60
2023-01-20T22:33:57.335Z,18.10
2023-01-20T22:36:29.635Z,21.30
2023-01-20T22:41:32.998Z,29.60
2023-01-20T22:44:05.704Z,19.20
2023-01-20T22:46:38.320Z,23.80
2023-01-20T22:49:12.368Z,17.30
2023-01-20T22:51:54.649Z,19.50
2023-01-20T22:54:26.955Z,21.90
2023-01-20T22:56:58.990Z,19.90
2023-01-20T22:59:31.500Z,23.70
2023-01-20T23:02:06.341Z,20.10
2023-01-20T23:04:38.609Z,29.10
2023-01-20T23:07:10.778Z,18.70
2023-01-20T23:12:13.713Z,26.50
